Mississagi — CFG8050 — position and weather

sailwx.info

Track history (hours):
 
Tides and Currents Weather Stations Pressure Air Temp Water Temp Dewpoint Dewpoint Depression Visibility Wind Speed Wind Dir Waves Ship Positions

Mississagi

Last reported at 2015-Aug-30 16:10 UTC. Time now 2015-Sep-01 10:09 UTC.
Position N 45°59' W 083°53'.

Length 189 m; draft 7.2 m.

Type: Cargo ship. MMSI: 316004940.

Date/timePositionNaut miles runAvg speedWind from/ knotsBaromVisibWave heightAir tempDewpointWater temp
2015-Aug-30 16:10N 45°59' W 083°53'0 0.1
2015-Aug-30 15:20N 45°59' W 083°53'0 0.1
2015-Aug-30 14:21N 45°59' W 083°53'0 0.0
2015-Aug-30 13:19N 45°59' W 083°53'0 0.0
2015-Aug-30 12:28N 45°59' W 083°53'0 0.0
2015-Aug-30 11:26N 45°59' W 083°53'0 0.0
2015-Aug-30 10:32N 45°59' W 083°53'0 0.0
2015-Aug-30 09:33N 45°59' W 083°53'0 0.0
2015-Aug-30 08:33N 45°59' W 083°53'3 2.9
2015-Aug-30 07:30N 45°56' W 083°53'  
2015-Aug-22 11:24N 45°45' W 083°54'911.1
2015-Aug-22 10:34N 45°48' W 084°06'1010.4
2015-Aug-22 09:34N 45°50' W 084°21'1111.0
2015-Aug-22 08:33N 45°51' W 084°37'1010.1
2015-Aug-22 07:33N 45°50' W 084°51'1010.3
2015-Aug-22 06:33N 45°54' W 085°05'8 7.6
2015-Aug-22 05:33N 46°02' W 085°07'1 0.8
2015-Aug-22 04:33N 46°02' W 085°06'0 0.1
2015-Aug-22 03:33N 46°02' W 085°06'0 0.0
2015-Aug-22 02:33N 46°02' W 085°06'0 0.0
2015-Aug-22 01:33N 46°02' W 085°06'0 0.0
2015-Aug-22 00:33N 46°02' W 085°06'0 0.0
2015-Aug-21 23:34N 46°02' W 085°06'1 0.6
2015-Aug-21 22:33N 46°02' W 085°07'7 6.7
2015-Aug-21 21:33N 45°59' W 085°16'9 9.0
2015-Aug-21 20:33N 45°55' W 085°28'9 8.8
2015-Aug-21 19:33N 45°52' W 085°39'9 8.9
2015-Aug-21 18:33N 45°48' W 085°51'1111.0
2015-Aug-21 17:33N 45°40' W 086°02'1211.9
2015-Aug-21 16:33N 45°30' W 086°10'1413.2
2015-Aug-21 15:30N 45°18' W 086°20'1212.3
2015-Aug-21 14:33N 45°07' W 086°28'  
Track history (hours):
 
Tides and Currents Weather Stations Pressure Air Temp Water Temp Dewpoint Dewpoint Depression Visibility Wind Speed Wind Dir Waves Ship Positions

Mississagi

Last reported at 2015-Aug-30 16:10 UTC. Time now 2015-Sep-01 10:09 UTC.
Position N 45°59' W 083°53'.

Length 189 m; draft 7.2 m.

Type: Cargo ship. MMSI: 316004940.

Date/timePositionNaut miles runAvg speedWind from/ knotsBaromVisibWave heightAir tempDewpointWater temp
2015-Aug-30 16:10N 45°59' W 083°53'0 0.1
2015-Aug-30 15:20N 45°59' W 083°53'0 0.1
2015-Aug-30 14:21N 45°59' W 083°53'0 0.0
2015-Aug-30 13:19N 45°59' W 083°53'0 0.0
2015-Aug-30 12:28N 45°59' W 083°53'0 0.0
2015-Aug-30 11:26N 45°59' W 083°53'0 0.0
2015-Aug-30 10:32N 45°59' W 083°53'0 0.0
2015-Aug-30 09:33N 45°59' W 083°53'0 0.0
2015-Aug-30 08:33N 45°59' W 083°53'3 2.9
2015-Aug-30 07:30N 45°56' W 083°53'  
2015-Aug-22 11:24N 45°45' W 083°54'911.1
2015-Aug-22 10:34N 45°48' W 084°06'1010.4
2015-Aug-22 09:34N 45°50' W 084°21'1111.0
2015-Aug-22 08:33N 45°51' W 084°37'1010.1
2015-Aug-22 07:33N 45°50' W 084°51'1010.3
2015-Aug-22 06:33N 45°54' W 085°05'8 7.6
2015-Aug-22 05:33N 46°02' W 085°07'1 0.8
2015-Aug-22 04:33N 46°02' W 085°06'0 0.1
2015-Aug-22 03:33N 46°02' W 085°06'0 0.0
2015-Aug-22 02:33N 46°02' W 085°06'0 0.0
2015-Aug-22 01:33N 46°02' W 085°06'0 0.0
2015-Aug-22 00:33N 46°02' W 085°06'0 0.0
2015-Aug-21 23:34N 46°02' W 085°06'1 0.6
2015-Aug-21 22:33N 46°02' W 085°07'7 6.7
2015-Aug-21 21:33N 45°59' W 085°16'9 9.0
2015-Aug-21 20:33N 45°55' W 085°28'9 8.8
2015-Aug-21 19:33N 45°52' W 085°39'9 8.9
2015-Aug-21 18:33N 45°48' W 085°51'1111.0
2015-Aug-21 17:33N 45°40' W 086°02'1211.9
2015-Aug-21 16:33N 45°30' W 086°10'1413.2
2015-Aug-21 15:30N 45°18' W 086°20'1212.3
2015-Aug-21 14:33N 45°07' W 086°28'  

Dump ship's entire track history